sensor_id;sensor_type;location;lat;lon;timestamp;P1;durP1;ratioP1;P2;durP2;ratioP2
9667;SDS011;4872;48.316;10.650;2023-09-07T04:10:39;6.43;;;5.73;;
9667;SDS011;4872;48.316;10.650;2023-09-07T04:13:06;9.07;;;6.57;;
9667;SDS011;4872;48.316;10.650;2023-09-07T04:15:33;8.77;;;6.30;;
9667;SDS011;4872;48.316;10.650;2023-09-07T04:18:01;8.30;;;6.90;;
9667;SDS011;4872;48.316;10.650;2023-09-07T04:20:27;9.13;;;6.70;;
9667;SDS011;4872;48.316;10.650;2023-09-07T04:22:55;8.07;;;6.73;;
9667;SDS011;4872;48.316;10.650;2023-09-07T04:25:22;9.07;;;7.07;;
9667;SDS011;4872;48.316;10.650;2023-09-07T04:27:50;7.47;;;6.77;;
9667;SDS011;4872;48.316;10.650;2023-09-07T04:30:16;8.40;;;7.17;;
9667;SDS011;4872;48.316;10.650;2023-09-07T04:32:43;8.53;;;7.13;;
9667;SDS011;4872;48.316;10.650;2023-09-07T04:35:10;7.87;;;6.47;;
9667;SDS011;4872;48.316;10.650;2023-09-07T04:37:37;7.40;;;6.47;;
9667;SDS011;4872;48.316;10.650;2023-09-07T04:40:05;6.90;;;6.20;;
9667;SDS011;4872;48.316;10.650;2023-09-07T04:42:32;7.67;;;6.87;;
9667;SDS011;4872;48.316;10.650;2023-09-07T04:45:00;7.93;;;7.07;;
9667;SDS011;4872;48.316;10.650;2023-09-07T04:47:28;7.33;;;6.63;;
9667;SDS011;4872;48.316;10.650;2023-09-07T04:49:55;8.37;;;6.67;;
9667;SDS011;4872;48.316;10.650;2023-09-07T04:52:21;7.77;;;6.97;;
9667;SDS011;4872;48.316;10.650;2023-09-07T04:54:49;7.57;;;6.50;;
9667;SDS011;4872;48.316;10.650;2023-09-07T04:57:16;7.20;;;6.47;;
9667;SDS011;4872;48.316;10.650;2023-09-07T04:59:43;8.13;;;6.80;;
9667;SDS011;4872;48.316;10.650;2023-09-07T05:02:11;8.23;;;6.70;;
9667;SDS011;4872;48.316;10.650;2023-09-07T05:04:38;9.07;;;7.23;;
9667;SDS011;4872;48.316;10.650;2023-09-07T05:07:05;8.23;;;6.40;;
9667;SDS011;4872;48.316;10.650;2023-09-07T05:09:32;7.43;;;6.00;;
9667;SDS011;4872;48.316;10.650;2023-09-07T05:11:58;7.37;;;6.17;;
9667;SDS011;4872;48.316;10.650;2023-09-07T05:14:25;7.00;;;6.30;;
9667;SDS011;4872;48.316;10.650;2023-09-07T05:16:52;7.40;;;6.20;;
9667;SDS011;4872;48.316;10.650;2023-09-07T05:19:22;7.10;;;6.07;;
9667;SDS011;4872;48.316;10.650;2023-09-07T05:21:49;6.13;;;5.53;;
9667;SDS011;4872;48.316;10.650;2023-09-07T05:24:16;10.10;;;6.17;;
9667;SDS011;4872;48.316;10.650;2023-09-07T05:26:42;7.53;;;6.47;;
9667;SDS011;4872;48.316;10.650;2023-09-07T05:29:10;7.60;;;6.27;;
9667;SDS011;4872;48.316;10.650;2023-09-07T05:31:38;7.73;;;6.40;;
9667;SDS011;4872;48.316;10.650;2023-09-07T05:34:05;10.37;;;6.40;;
9667;SDS011;4872;48.316;10.650;2023-09-07T05:36:33;6.83;;;5.80;;
9667;SDS011;4872;48.316;10.650;2023-09-07T05:39:00;8.30;;;6.60;;
9667;SDS011;4872;48.316;10.650;2023-09-07T05:41:29;5.70;;;4.80;;
9667;SDS011;4872;48.316;10.650;2023-09-07T05:43:55;6.60;;;5.13;;
9667;SDS011;4872;48.316;10.650;2023-09-07T05:46:22;5.57;;;4.97;;
9667;SDS011;4872;48.316;10.650;2023-09-07T05:48:49;6.77;;;5.10;;
9667;SDS011;4872;48.316;10.650;2023-09-07T05:51:16;5.30;;;4.80;;
9667;SDS011;4872;48.316;10.650;2023-09-07T05:53:44;5.83;;;5.33;;
9667;SDS011;4872;48.316;10.650;2023-09-07T05:56:11;5.73;;;5.20;;
9667;SDS011;4872;48.316;10.650;2023-09-07T05:58:38;16.13;;;6.97;;
9667;SDS011;4872;48.316;10.650;2023-09-07T06:01:04;25.17;;;7.90;;
9667;SDS011;4872;48.316;10.650;2023-09-07T06:03:31;8.33;;;5.47;;
9667;SDS011;4872;48.316;10.650;2023-09-07T06:06:00;9.40;;;6.67;;
9667;SDS011;4872;48.316;10.650;2023-09-07T06:08:27;8.27;;;6.80;;
9667;SDS011;4872;48.316;10.650;2023-09-07T06:10:55;8.83;;;7.90;;
9667;SDS011;4872;48.316;10.650;2023-09-07T06:13:22;16.20;;;9.27;;
9667;SDS011;4872;48.316;10.650;2023-09-07T06:15:49;16.83;;;9.73;;
9667;SDS011;4872;48.316;10.650;2023-09-07T06:18:15;20.37;;;9.70;;
9667;SDS011;4872;48.316;10.650;2023-09-07T06:20:42;13.37;;;8.77;;
9667;SDS011;4872;48.316;10.650;2023-09-07T06:23:09;14.03;;;9.47;;
9667;SDS011;4872;48.316;10.650;2023-09-07T06:25:35;8.57;;;7.67;;
9667;SDS011;4872;48.316;10.650;2023-09-07T06:28:04;23.23;;;11.73;;
9667;SDS011;4872;48.316;10.650;2023-09-07T06:30:31;36.60;;;12.87;;
9667;SDS011;4872;48.316;10.650;2023-09-07T06:32:59;17.60;;;9.17;;
9667;SDS011;4872;48.316;10.650;2023-09-07T06:35:27;14.87;;;9.17;;
9667;SDS011;4872;48.316;10.650;2023-09-07T06:37:54;9.57;;;8.23;;
9667;SDS011;4872;48.316;10.650;2023-09-07T06:40:20;17.03;;;10.63;;
9667;SDS011;4872;48.316;10.650;2023-09-07T06:42:47;17.17;;;9.70;;
9667;SDS011;4872;48.316;10.650;2023-09-07T06:45:15;15.97;;;9.93;;
9667;SDS011;4872;48.316;10.650;2023-09-07T06:47:42;12.27;;;9.50;;
9667;SDS011;4872;48.316;10.650;2023-09-07T06:50:09;24.00;;;11.73;;
9667;SDS011;4872;48.316;10.650;2023-09-07T06:52:36;45.40;;;17.83;;
9667;SDS011;4872;48.316;10.650;2023-09-07T06:55:03;14.40;;;10.83;;
9667;SDS011;4872;48.316;10.650;2023-09-07T06:57:30;12.80;;;10.07;;
9667;SDS011;4872;48.316;10.650;2023-09-07T06:59:58;10.03;;;9.03;;
9667;SDS011;4872;48.316;10.650;2023-09-07T07:02:26;12.13;;;8.07;;
9667;SDS011;4872;48.316;10.650;2023-09-07T07:04:53;11.47;;;8.17;;
9667;SDS011;4872;48.316;10.650;2023-09-07T07:07:20;9.70;;;8.70;;
9667;SDS011;4872;48.316;10.650;2023-09-07T07:09:46;9.60;;;8.60;;
9667;SDS011;4872;48.316;10.650;2023-09-07T07:12:13;10.07;;;8.67;;
9667;SDS011;4872;48.316;10.650;2023-09-07T07:14:40;9.30;;;8.40;;
9667;SDS011;4872;48.316;10.650;2023-09-07T07:17:07;9.73;;;8.47;;
9667;SDS011;4872;48.316;10.650;2023-09-07T07:19:35;10.57;;;8.57;;
9667;SDS011;4872;48.316;10.650;2023-09-07T07:22:02;8.63;;;7.83;;
9667;SDS011;4872;48.316;10.650;2023-09-07T07:24:29;9.17;;;8.27;;
9667;SDS011;4872;48.316;10.650;2023-09-07T07:26:55;9.53;;;8.53;;
9667;SDS011;4872;48.316;10.650;2023-09-07T07:29:22;9.03;;;8.17;;
9667;SDS011;4872;48.316;10.650;2023-09-07T07:31:49;10.90;;;8.63;;
9667;SDS011;4872;48.316;10.650;2023-09-07T07:34:16;9.43;;;8.43;;
9667;SDS011;4872;48.316;10.650;2023-09-07T07:36:44;10.60;;;9.47;;
9667;SDS011;4872;48.316;10.650;2023-09-07T07:39:11;11.63;;;8.67;;
9667;SDS011;4872;48.316;10.650;2023-09-07T07:41:38;9.30;;;7.67;;
9667;SDS011;4872;48.316;10.650;2023-09-07T07:44:05;10.27;;;8.50;;
9667;SDS011;4872;48.316;10.650;2023-09-07T07:46:32;10.23;;;8.80;;
9667;SDS011;4872;48.316;10.650;2023-09-07T07:48:58;10.13;;;9.00;;
9667;SDS011;4872;48.316;10.650;2023-09-07T07:51:25;10.20;;;9.20;;
9667;SDS011;4872;48.316;10.650;2023-09-07T07:53:54;9.63;;;8.63;;
9667;SDS011;4872;48.316;10.650;2023-09-07T07:56:22;9.60;;;8.40;;
9667;SDS011;4872;48.316;10.650;2023-09-07T07:58:49;9.43;;;8.53;;
9667;SDS011;4872;48.316;10.650;2023-09-07T08:01:17;9.60;;;8.60;;
9667;SDS011;4872;48.316;10.650;2023-09-07T08:03:45;9.97;;;8.50;;
9667;SDS011;4872;48.316;10.650;2023-09-07T08:06:12;11.80;;;8.77;;
9667;SDS011;4872;48.316;10.650;2023-09-07T08:08:39;9.40;;;8.50;;
9667;SDS011;4872;48.316;10.650;2023-09-07T08:11:07;9.83;;;8.47;;
9667;SDS011;4872;48.316;10.650;2023-09-07T08:13:34;9.23;;;8.33;;
9667;SDS011;4872;48.316;10.650;2023-09-07T08:16:01;8.80;;;7.90;;
9667;SDS011;4872;48.316;10.650;2023-09-07T08:18:28;10.07;;;9.03;;
9667;SDS011;4872;48.316;10.650;2023-09-07T08:20:57;9.07;;;7.80;;
9667;SDS011;4872;48.316;10.650;2023-09-07T08:23:23;9.27;;;8.40;;
9667;SDS011;4872;48.316;10.650;2023-09-07T08:25:50;8.20;;;7.40;;
9667;SDS011;4872;48.316;10.650;2023-09-07T08:28:19;8.63;;;7.73;;
9667;SDS011;4872;48.316;10.650;2023-09-07T08:30:48;8.23;;;7.47;;
9667;SDS011;4872;48.316;10.650;2023-09-07T08:33:15;9.10;;;8.30;;
9667;SDS011;4872;48.316;10.650;2023-09-07T08:35:42;8.93;;;8.03;;
9667;SDS011;4872;48.316;10.650;2023-09-07T08:38:10;9.10;;;8.17;;
9667;SDS011;4872;48.316;10.650;2023-09-07T08:40:37;9.77;;;7.63;;
9667;SDS011;4872;48.316;10.650;2023-09-07T08:43:05;9.90;;;8.33;;
9667;SDS011;4872;48.316;10.650;2023-09-07T08:45:37;11.00;;;8.27;;
9667;SDS011;4872;48.316;10.650;2023-09-07T08:48:12;10.80;;;9.03;;
9667;SDS011;4872;48.316;10.650;2023-09-07T08:50:42;7.73;;;7.03;;
9667;SDS011;4872;48.316;10.650;2023-09-07T08:53:15;7.97;;;7.17;;
9667;SDS011;4872;48.316;10.650;2023-09-07T08:55:44;8.60;;;7.63;;
9667;SDS011;4872;48.316;10.650;2023-09-07T08:58:10;9.23;;;8.27;;
9667;SDS011;4872;48.316;10.650;2023-09-07T09:00:40;9.10;;;7.70;;
9667;SDS011;4872;48.316;10.650;2023-09-07T09:03:08;8.23;;;7.30;;
9667;SDS011;4872;48.316;10.650;2023-09-07T09:05:35;8.20;;;7.27;;
9667;SDS011;4872;48.316;10.650;2023-09-07T09:08:06;8.43;;;7.40;;
9667;SDS011;4872;48.316;10.650;2023-09-07T09:10:33;7.80;;;6.70;;
9667;SDS011;4872;48.316;10.650;2023-09-07T09:13:00;8.70;;;7.33;;
9667;SDS011;4872;48.316;10.650;2023-09-07T09:15:26;7.77;;;7.00;;
9667;SDS011;4872;48.316;10.650;2023-09-07T09:17:54;7.77;;;7.00;;
9667;SDS011;4872;48.316;10.650;2023-09-07T09:20:22;8.00;;;7.20;;
9667;SDS011;4872;48.316;10.650;2023-09-07T09:22:50;8.37;;;6.50;;
9667;SDS011;4872;48.316;10.650;2023-09-07T09:25:18;8.23;;;7.43;;
9667;SDS011;4872;48.316;10.650;2023-09-07T09:27:45;7.27;;;6.57;;
9667;SDS011;4872;48.316;10.650;2023-09-07T09:30:12;7.97;;;7.17;;
9667;SDS011;4872;48.316;10.650;2023-09-07T09:32:41;7.33;;;6.63;;
9667;SDS011;4872;48.316;10.650;2023-09-07T09:35:09;7.43;;;6.70;;
9667;SDS011;4872;48.316;10.650;2023-09-07T09:37:43;8.27;;;7.23;;
9667;SDS011;4872;48.316;10.650;2023-09-07T09:40:11;7.77;;;7.07;;
9667;SDS011;4872;48.316;10.650;2023-09-07T09:42:39;8.03;;;7.23;;
9667;SDS011;4872;48.316;10.650;2023-09-07T09:45:08;9.27;;;6.83;;
9667;SDS011;4872;48.316;10.650;2023-09-07T09:47:36;7.47;;;6.67;;
9667;SDS011;4872;48.316;10.650;2023-09-07T09:50:06;7.23;;;6.53;;
9667;SDS011;4872;48.316;10.650;2023-09-07T09:52:35;7.43;;;6.73;;
9667;SDS011;4872;48.316;10.650;2023-09-07T09:55:03;9.70;;;7.57;;
9667;SDS011;4872;48.316;10.650;2023-09-07T09:57:32;7.73;;;7.03;;
9667;SDS011;4872;48.316;10.650;2023-09-07T10:00:00;7.63;;;6.93;;
9667;SDS011;4872;48.316;10.650;2023-09-07T10:02:36;6.80;;;6.20;;
9667;SDS011;4872;48.316;10.650;2023-09-07T10:05:04;7.87;;;7.00;;
9667;SDS011;4872;48.316;10.650;2023-09-07T10:07:43;9.70;;;6.90;;
9667;SDS011;4872;48.316;10.650;2023-09-07T10:10:12;7.07;;;6.47;;
9667;SDS011;4872;48.316;10.650;2023-09-07T10:12:40;7.43;;;6.57;;
9667;SDS011;4872;48.316;10.650;2023-09-07T10:15:19;7.53;;;6.80;;
9667;SDS011;4872;48.316;10.650;2023-09-07T10:17:46;7.53;;;6.83;;
9667;SDS011;4872;48.316;10.650;2023-09-07T10:20:15;7.07;;;6.33;;
9667;SDS011;4872;48.316;10.650;2023-09-07T10:22:44;7.23;;;6.60;;
9667;SDS011;4872;48.316;10.650;2023-09-07T10:25:17;7.20;;;6.50;;
9667;SDS011;4872;48.316;10.650;2023-09-07T10:27:45;7.47;;;6.77;;
9667;SDS011;4872;48.316;10.650;2023-09-07T10:30:13;7.27;;;6.37;;
9667;SDS011;4872;48.316;10.650;2023-09-07T10:32:44;8.10;;;6.67;;
9667;SDS011;4872;48.316;10.650;2023-09-07T10:35:12;7.10;;;6.37;;
9667;SDS011;4872;48.316;10.650;2023-09-07T10:37:39;8.70;;;7.60;;
9667;SDS011;4872;48.316;10.650;2023-09-07T10:40:09;8.20;;;6.57;;
9667;SDS011;4872;48.316;10.650;2023-09-07T10:42:36;7.20;;;6.50;;
9667;SDS011;4872;48.316;10.650;2023-09-07T10:45:10;7.57;;;6.87;;
9667;SDS011;4872;48.316;10.650;2023-09-07T10:47:40;7.40;;;6.20;;
9667;SDS011;4872;48.316;10.650;2023-09-07T10:50:08;6.17;;;5.57;;
9667;SDS011;4872;48.316;10.650;2023-09-07T10:52:37;7.23;;;6.50;;
9667;SDS011;4872;48.316;10.650;2023-09-07T10:55:05;7.30;;;6.60;;
9667;SDS011;4872;48.316;10.650;2023-09-07T10:57:33;8.60;;;6.50;;
9667;SDS011;4872;48.316;10.650;2023-09-07T11:00:08;7.17;;;6.47;;
9667;SDS011;4872;48.316;10.650;2023-09-07T11:02:36;7.30;;;6.47;;
9667;SDS011;4872;48.316;10.650;2023-09-07T11:05:03;9.10;;;6.90;;
9667;SDS011;4872;48.316;10.650;2023-09-07T11:07:30;8.83;;;7.10;;
9667;SDS011;4872;48.316;10.650;2023-09-07T11:09:57;8.10;;;7.30;;
9667;SDS011;4872;48.316;10.650;2023-09-07T11:12:24;7.50;;;6.80;;
9667;SDS011;4872;48.316;10.650;2023-09-07T11:14:53;9.30;;;7.93;;
9667;SDS011;4872;48.316;10.650;2023-09-07T11:17:25;9.33;;;7.43;;
9667;SDS011;4872;48.316;10.650;2023-09-07T11:19:52;8.07;;;7.37;;
9667;SDS011;4872;48.316;10.650;2023-09-07T11:22:19;7.13;;;6.53;;
9667;SDS011;4872;48.316;10.650;2023-09-07T11:24:47;8.43;;;7.00;;
9667;SDS011;4872;48.316;10.650;2023-09-07T11:27:16;7.53;;;6.70;;
9667;SDS011;4872;48.316;10.650;2023-09-07T11:29:49;7.27;;;6.57;;
9667;SDS011;4872;48.316;10.650;2023-09-07T11:32:19;8.20;;;7.13;;
9667;SDS011;4872;48.316;10.650;2023-09-07T11:34:47;7.30;;;6.60;;
9667;SDS011;4872;48.316;10.650;2023-09-07T11:37:15;6.50;;;5.90;;
9667;SDS011;4872;48.316;10.650;2023-09-07T11:39:42;7.03;;;6.33;;
9667;SDS011;4872;48.316;10.650;2023-09-07T11:42:09;6.97;;;6.37;;
9667;SDS011;4872;48.316;10.650;2023-09-07T11:44:36;7.40;;;6.50;;
9667;SDS011;4872;48.316;10.650;2023-09-07T11:47:04;6.70;;;6.10;;
9667;SDS011;4872;48.316;10.650;2023-09-07T11:49:31;8.80;;;6.33;;
9667;SDS011;4872;48.316;10.650;2023-09-07T11:51:58;6.23;;;5.47;;
9667;SDS011;4872;48.316;10.650;2023-09-07T11:54:25;7.43;;;6.40;;
9667;SDS011;4872;48.316;10.650;2023-09-07T11:56:52;7.00;;;6.40;;
9667;SDS011;4872;48.316;10.650;2023-09-07T11:59:19;7.20;;;6.50;;
9667;SDS011;4872;48.316;10.650;2023-09-07T12:01:45;6.73;;;5.67;;
9667;SDS011;4872;48.316;10.650;2023-09-07T12:04:14;8.20;;;6.33;;
9667;SDS011;4872;48.316;10.650;2023-09-07T12:06:41;6.00;;;5.40;;
9667;SDS011;4872;48.316;10.650;2023-09-07T12:09:08;7.63;;;5.80;;
9667;SDS011;4872;48.316;10.650;2023-09-07T12:11:35;6.60;;;6.00;;
9667;SDS011;4872;48.316;10.650;2023-09-07T12:14:02;5.77;;;5.33;;
9667;SDS011;4872;48.316;10.650;2023-09-07T12:16:30;6.00;;;5.30;;
9667;SDS011;4872;48.316;10.650;2023-09-07T12:18:57;6.10;;;5.60;;
9667;SDS011;4872;48.316;10.650;2023-09-07T12:21:25;8.53;;;5.80;;
9667;SDS011;4872;48.316;10.650;2023-09-07T12:23:52;11.57;;;7.10;;
9667;SDS011;4872;48.316;10.650;2023-09-07T12:26:18;6.63;;;5.47;;
9667;SDS011;4872;48.316;10.650;2023-09-07T12:28:46;6.37;;;5.77;;
9667;SDS011;4872;48.316;10.650;2023-09-07T12:31:13;6.43;;;5.83;;
9667;SDS011;4872;48.316;10.650;2023-09-07T12:33:40;6.63;;;6.03;;
9667;SDS011;4872;48.316;10.650;2023-09-07T12:36:06;5.60;;;4.97;;
9667;SDS011;4872;48.316;10.650;2023-09-07T12:38:36;9.73;;;6.00;;
9667;SDS011;4872;48.316;10.650;2023-09-07T12:41:03;5.70;;;4.93;;
9667;SDS011;4872;48.316;10.650;2023-09-07T12:43:30;5.57;;;5.07;;
9667;SDS011;4872;48.316;10.650;2023-09-07T12:45:57;9.87;;;5.30;;
9667;SDS011;4872;48.316;10.650;2023-09-07T12:48:24;7.23;;;5.30;;
9667;SDS011;4872;48.316;10.650;2023-09-07T12:50:51;5.47;;;4.97;;
9667;SDS011;4872;48.316;10.650;2023-09-07T12:53:18;6.30;;;4.60;;
9667;SDS011;4872;48.316;10.650;2023-09-07T12:55:46;5.37;;;4.87;;
9667;SDS011;4872;48.316;10.650;2023-09-07T12:58:13;5.37;;;4.80;;
9667;SDS011;4872;48.316;10.650;2023-09-07T13:00:39;4.77;;;4.37;;
9667;SDS011;4872;48.316;10.650;2023-09-07T13:03:06;4.80;;;4.30;;
9667;SDS011;4872;48.316;10.650;2023-09-07T13:05:33;5.07;;;4.57;;
9667;SDS011;4872;48.316;10.650;2023-09-07T13:08:01;5.40;;;5.00;;
9667;SDS011;4872;48.316;10.650;2023-09-07T13:10:28;5.07;;;4.63;;
9667;SDS011;4872;48.316;10.650;2023-09-07T13:12:56;4.57;;;4.17;;
9667;SDS011;4872;48.316;10.650;2023-09-07T13:15:23;4.28;;;3.78;;
9667;SDS011;4872;48.316;10.650;2023-09-07T13:17:51;4.90;;;4.50;;
9667;SDS011;4872;48.316;10.650;2023-09-07T13:20:18;4.95;;;4.47;;
9667;SDS011;4872;48.316;10.650;2023-09-07T13:22:46;4.80;;;4.40;;
9667;SDS011;4872;48.316;10.650;2023-09-07T13:25:12;4.15;;;3.85;;
9667;SDS011;4872;48.316;10.650;2023-09-07T13:27:39;4.28;;;3.85;;
9667;SDS011;4872;48.316;10.650;2023-09-07T13:30:08;4.82;;;4.05;;
9667;SDS011;4872;48.316;10.650;2023-09-07T13:32:37;4.25;;;3.95;;
9667;SDS011;4872;48.316;10.650;2023-09-07T13:35:04;4.90;;;4.07;;
9667;SDS011;4872;48.316;10.650;2023-09-07T13:37:31;3.80;;;3.50;;
9667;SDS011;4872;48.316;10.650;2023-09-07T13:39:59;3.70;;;3.40;;
9667;SDS011;4872;48.316;10.650;2023-09-07T13:42:26;4.22;;;3.83;;
9667;SDS011;4872;48.316;10.650;2023-09-07T13:44:54;4.93;;;4.43;;
9667;SDS011;4872;48.316;10.650;2023-09-07T13:47:23;4.93;;;3.83;;
9667;SDS011;4872;48.316;10.650;2023-09-07T13:49:49;4.50;;;4.10;;
9667;SDS011;4872;48.316;10.650;2023-09-07T13:52:16;6.63;;;4.25;;
9667;SDS011;4872;48.316;10.650;2023-09-07T13:54:43;4.03;;;3.72;;
9667;SDS011;4872;48.316;10.650;2023-09-07T13:57:10;4.10;;;3.80;;
9667;SDS011;4872;48.316;10.650;2023-09-07T13:59:36;4.10;;;3.70;;
9667;SDS011;4872;48.316;10.650;2023-09-07T14:02:03;4.70;;;4.03;;
9667;SDS011;4872;48.316;10.650;2023-09-07T14:04:31;4.00;;;3.70;;
9667;SDS011;4872;48.316;10.650;2023-09-07T14:06:58;4.25;;;3.50;;
9667;SDS011;4872;48.316;10.650;2023-09-07T14:09:25;4.30;;;3.88;;
9667;SDS011;4872;48.316;10.650;2023-09-07T14:11:51;4.00;;;3.55;;
9667;SDS011;4872;48.316;10.650;2023-09-07T14:14:18;3.75;;;3.45;;
9667;SDS011;4872;48.316;10.650;2023-09-07T14:16:46;5.20;;;3.60;;
9667;SDS011;4872;48.316;10.650;2023-09-07T14:19:13;5.13;;;3.63;;
9667;SDS011;4872;48.316;10.650;2023-09-07T14:21:41;4.57;;;3.63;;
9667;SDS011;4872;48.316;10.650;2023-09-07T14:24:07;4.50;;;3.30;;
9667;SDS011;4872;48.316;10.650;2023-09-07T14:26:34;7.65;;;3.90;;
9667;SDS011;4872;48.316;10.650;2023-09-07T14:29:01;7.35;;;4.68;;
9667;SDS011;4872;48.316;10.650;2023-09-07T14:31:27;4.43;;;3.60;;
9667;SDS011;4872;48.316;10.650;2023-09-07T14:33:54;8.45;;;4.63;;
9667;SDS011;4872;48.316;10.650;2023-09-07T14:36:21;3.70;;;3.35;;
9667;SDS011;4872;48.316;10.650;2023-09-07T14:38:49;3.40;;;3.10;;
9667;SDS011;4872;48.316;10.650;2023-09-07T14:41:16;3.65;;;3.35;;
9667;SDS011;4872;48.316;10.650;2023-09-07T14:43:44;3.40;;;3.10;;
9667;SDS011;4872;48.316;10.650;2023-09-07T14:46:11;3.60;;;3.30;;
9667;SDS011;4872;48.316;10.650;2023-09-07T14:48:38;7.10;;;3.72;;
9667;SDS011;4872;48.316;10.650;2023-09-07T14:51:05;4.00;;;3.70;;
9667;SDS011;4872;48.316;10.650;2023-09-07T14:53:31;3.95;;;3.63;;
9667;SDS011;4872;48.316;10.650;2023-09-07T14:56:00;3.92;;;3.53;;
9667;SDS011;4872;48.316;10.650;2023-09-07T14:58:27;3.83;;;3.47;;
9667;SDS011;4872;48.316;10.650;2023-09-07T15:00:54;3.50;;;3.20;;
9667;SDS011;4872;48.316;10.650;2023-09-07T15:03:20;3.38;;;3.10;;
9667;SDS011;4872;48.316;10.650;2023-09-07T15:05:47;3.45;;;3.15;;
9667;SDS011;4872;48.316;10.650;2023-09-07T15:08:14;3.88;;;3.40;;
9667;SDS011;4872;48.316;10.650;2023-09-07T15:10:41;3.75;;;3.45;;
9667;SDS011;4872;48.316;10.650;2023-09-07T15:13:09;4.38;;;3.42;;
9667;SDS011;4872;48.316;10.650;2023-09-07T15:15:36;3.85;;;3.45;;
9667;SDS011;4872;48.316;10.650;2023-09-07T15:18:05;3.70;;;3.28;;
9667;SDS011;4872;48.316;10.650;2023-09-07T15:20:32;4.05;;;2.97;;
9667;SDS011;4872;48.316;10.650;2023-09-07T15:22:59;4.35;;;3.42;;
9667;SDS011;4872;48.316;10.650;2023-09-07T15:25:25;3.85;;;3.45;;
9667;SDS011;4872;48.316;10.650;2023-09-07T15:27:52;4.15;;;3.17;;
9667;SDS011;4872;48.316;10.650;2023-09-07T15:30:21;3.78;;;3.33;;
9667;SDS011;4872;48.316;10.650;2023-09-07T15:32:49;3.95;;;3.50;;
9667;SDS011;4872;48.316;10.650;2023-09-07T15:35:16;3.78;;;3.40;;
9667;SDS011;4872;48.316;10.650;2023-09-07T15:37:43;3.70;;;3.40;;
9667;SDS011;4872;48.316;10.650;2023-09-07T15:40:11;3.88;;;3.47;;
9667;SDS011;4872;48.316;10.650;2023-09-07T15:42:38;3.42;;;2.97;;
9667;SDS011;4872;48.316;10.650;2023-09-07T15:45:05;3.28;;;2.97;;
9667;SDS011;4872;48.316;10.650;2023-09-07T15:47:34;3.97;;;3.45;;
9667;SDS011;4872;48.316;10.650;2023-09-07T15:50:01;4.82;;;4.32;;
9667;SDS011;4872;48.316;10.650;2023-09-07T15:52:29;3.90;;;3.42;;
9667;SDS011;4872;48.316;10.650;2023-09-07T15:54:56;3.47;;;3.17;;
9667;SDS011;4872;48.316;10.650;2023-09-07T15:57:22;3.83;;;3.53;;
9667;SDS011;4872;48.316;10.650;2023-09-07T15:59:50;3.78;;;3.25;;
9667;SDS011;4872;48.316;10.650;2023-09-07T16:02:17;3.42;;;3.13;;
9667;SDS011;4872;48.316;10.650;2023-09-07T16:04:45;3.53;;;3.20;;
9667;SDS011;4872;48.316;10.650;2023-09-07T16:07:12;5.07;;;3.80;;
9667;SDS011;4872;48.316;10.650;2023-09-07T16:09:38;3.95;;;3.28;;
9667;SDS011;4872;48.316;10.650;2023-09-07T16:12:05;3.88;;;3.47;;
9667;SDS011;4872;48.316;10.650;2023-09-07T16:14:32;4.82;;;3.78;;
9667;SDS011;4872;48.316;10.650;2023-09-07T16:16:59;5.47;;;3.42;;
9667;SDS011;4872;48.316;10.650;2023-09-07T16:19:26;3.40;;;3.10;;
9667;SDS011;4872;48.316;10.650;2023-09-07T16:21:54;3.60;;;3.30;;
9667;SDS011;4872;48.316;10.650;2023-09-07T16:24:21;5.05;;;3.30;;
9667;SDS011;4872;48.316;10.650;2023-09-07T16:26:48;4.32;;;3.20;;
9667;SDS011;4872;48.316;10.650;2023-09-07T16:29:15;3.95;;;3.45;;
9667;SDS011;4872;48.316;10.650;2023-09-07T16:31:41;3.60;;;3.20;;
9667;SDS011;4872;48.316;10.650;2023-09-07T16:34:08;4.78;;;3.72;;
9667;SDS011;4872;48.316;10.650;2023-09-07T16:36:35;4.05;;;3.65;;
9667;SDS011;4872;48.316;10.650;2023-09-07T16:39:03;4.22;;;3.83;;
9667;SDS011;4872;48.316;10.650;2023-09-07T16:41:30;4.65;;;3.90;;
9667;SDS011;4872;48.316;10.650;2023-09-07T16:43:57;5.32;;;4.10;;
9667;SDS011;4872;48.316;10.650;2023-09-07T16:46:24;5.55;;;3.47;;
9667;SDS011;4872;48.316;10.650;2023-09-07T16:48:51;4.43;;;3.85;;
9667;SDS011;4872;48.316;10.650;2023-09-07T16:51:18;4.45;;;4.05;;
9667;SDS011;4872;48.316;10.650;2023-09-07T16:53:46;4.95;;;3.72;;
9667;SDS011;4872;48.316;10.650;2023-09-07T16:56:14;4.67;;;3.80;;
9667;SDS011;4872;48.316;10.650;2023-09-07T16:58:42;4.53;;;4.13;;
9667;SDS011;4872;48.316;10.650;2023-09-07T17:01:09;4.87;;;3.73;;
9667;SDS011;4872;48.316;10.650;2023-09-07T17:03:36;5.83;;;4.00;;
9667;SDS011;4872;48.316;10.650;2023-09-07T17:06:03;4.57;;;4.00;;
9667;SDS011;4872;48.316;10.650;2023-09-07T17:08:29;5.00;;;4.47;;
9667;SDS011;4872;48.316;10.650;2023-09-07T17:10:57;5.63;;;4.70;;
9667;SDS011;4872;48.316;10.650;2023-09-07T17:13:26;5.90;;;4.80;;
9667;SDS011;4872;48.316;10.650;2023-09-07T17:15:53;5.63;;;4.33;;
9667;SDS011;4872;48.316;10.650;2023-09-07T17:18:20;4.63;;;4.00;;
9667;SDS011;4872;48.316;10.650;2023-09-07T17:20:46;4.80;;;3.93;;
9667;SDS011;4872;48.316;10.650;2023-09-07T17:23:13;4.90;;;4.07;;
9667;SDS011;4872;48.316;10.650;2023-09-07T17:25:40;7.83;;;3.93;;
9667;SDS011;4872;48.316;10.650;2023-09-07T17:28:07;7.13;;;4.80;;
9667;SDS011;4872;48.316;10.650;2023-09-07T17:30:36;5.20;;;4.57;;
9667;SDS011;4872;48.316;10.650;2023-09-07T17:33:03;6.10;;;3.90;;
9667;SDS011;4872;48.316;10.650;2023-09-07T17:35:30;5.87;;;4.10;;
9667;SDS011;4872;48.316;10.650;2023-09-07T17:38:00;4.57;;;4.17;;
9667;SDS011;4872;48.316;10.650;2023-09-07T17:40:27;5.07;;;4.27;;
9667;SDS011;4872;48.316;10.650;2023-09-07T17:42:54;4.73;;;4.03;;
9667;SDS011;4872;48.316;10.650;2023-09-07T17:45:21;4.90;;;4.07;;
9667;SDS011;4872;48.316;10.650;2023-09-07T17:47:49;5.60;;;4.13;;
9667;SDS011;4872;48.316;10.650;2023-09-07T17:50:16;6.37;;;4.10;;
9667;SDS011;4872;48.316;10.650;2023-09-07T17:52:42;5.37;;;4.80;;
9667;SDS011;4872;48.316;10.650;2023-09-07T17:55:09;5.80;;;4.43;;
9667;SDS011;4872;48.316;10.650;2023-09-07T17:57:36;4.87;;;4.20;;
9667;SDS011;4872;48.316;10.650;2023-09-07T18:00:03;6.47;;;4.20;;
9667;SDS011;4872;48.316;10.650;2023-09-07T18:02:30;6.83;;;4.40;;
9667;SDS011;4872;48.316;10.650;2023-09-07T18:04:59;5.27;;;4.47;;
9667;SDS011;4872;48.316;10.650;2023-09-07T18:07:26;8.40;;;4.73;;
9667;SDS011;4872;48.316;10.650;2023-09-07T18:09:55;5.90;;;4.57;;
9667;SDS011;4872;48.316;10.650;2023-09-07T18:12:22;4.70;;;4.30;;
9667;SDS011;4872;48.316;10.650;2023-09-07T18:14:49;7.27;;;5.07;;
9667;SDS011;4872;48.316;10.650;2023-09-07T18:17:16;5.63;;;4.63;;
9667;SDS011;4872;48.316;10.650;2023-09-07T18:19:43;5.37;;;4.60;;
9667;SDS011;4872;48.316;10.650;2023-09-07T18:22:11;6.90;;;6.17;;
9667;SDS011;4872;48.316;10.650;2023-09-07T18:24:38;9.27;;;5.93;;
9667;SDS011;4872;48.316;10.650;2023-09-07T18:27:05;5.43;;;4.90;;
9667;SDS011;4872;48.316;10.650;2023-09-07T18:29:32;6.83;;;4.97;;
9667;SDS011;4872;48.316;10.650;2023-09-07T18:32:00;5.87;;;5.07;;
9667;SDS011;4872;48.316;10.650;2023-09-07T18:34:27;5.47;;;4.63;;
9667;SDS011;4872;48.316;10.650;2023-09-07T18:36:54;7.50;;;5.50;;
9667;SDS011;4872;48.316;10.650;2023-09-07T18:39:22;5.80;;;5.17;;
9667;SDS011;4872;48.316;10.650;2023-09-07T18:41:49;7.27;;;5.40;;
9667;SDS011;4872;48.316;10.650;2023-09-07T18:44:17;8.27;;;5.80;;
9667;SDS011;4872;48.316;10.650;2023-09-07T18:46:43;6.00;;;5.40;;
9667;SDS011;4872;48.316;10.650;2023-09-07T18:49:12;7.90;;;6.00;;
9667;SDS011;4872;48.316;10.650;2023-09-07T18:51:38;7.87;;;5.53;;
9667;SDS011;4872;48.316;10.650;2023-09-07T18:54:06;6.83;;;5.17;;
9667;SDS011;4872;48.316;10.650;2023-09-07T18:56:34;6.63;;;5.63;;
9667;SDS011;4872;48.316;10.650;2023-09-07T18:59:01;6.17;;;5.57;;
9667;SDS011;4872;48.316;10.650;2023-09-07T19:01:28;7.93;;;5.87;;
9667;SDS011;4872;48.316;10.650;2023-09-07T19:04:06;6.70;;;6.00;;
9667;SDS011;4872;48.316;10.650;2023-09-07T19:06:34;8.10;;;6.10;;
9667;SDS011;4872;48.316;10.650;2023-09-07T19:09:02;7.43;;;5.60;;
9667;SDS011;4872;48.316;10.650;2023-09-07T19:11:29;7.03;;;5.93;;